Time,TemperatureF,DewpointF,PressureIn,WindDirection,WindDirectionDegrees,WindSpeedMPH,WindSpeedGustMPH,Humidity,HourlyPrecipIn,Conditions,Clouds,dailyrainin,SoftwareType,DateUTC
2013-05-12 00:03:00,-999.0,-99.9,29.72,North,10,5.0,-999.0,77,-99.99,,,-99.99,,2013-05-12 04:03:00,
2013-05-12 00:12:00,61.0,55.0,29.72,NNE,20,3.0,-999.0,82,-99.99,,,-99.99,,2013-05-12 04:12:00,
2013-05-12 00:22:00,61.0,54.0,29.72,North,10,3.0,-999.0,77,-99.99,,,-99.99,,2013-05-12 04:22:00,
2013-05-12 00:33:00,61.0,55.0,29.71,NNE,20,6.0,-999.0,82,-99.99,,,-99.99,,2013-05-12 04:33:00,
2013-05-12 00:43:00,61.0,55.0,29.72,NNE,20,3.0,-999.0,82,-99.99,,,-99.99,,2013-05-12 04:43:00,
2013-05-12 00:52:00,61.0,54.0,29.70,North,10,6.0,-999.0,77,-99.99,,,-99.99,,2013-05-12 04:52:00,
2013-05-12 01:02:00,61.0,54.0,29.70,North,10,5.0,-999.0,77,-99.99,,,-99.99,,2013-05-12 05:02:00,
2013-05-12 01:12:00,61.0,54.0,29.71,North,10,5.0,-999.0,77,-99.99,,,-99.99,,2013-05-12 05:12:00,
2013-05-12 01:22:00,61.0,54.0,29.72,NNE,20,5.0,-999.0,77,-99.99,,,-99.99,,2013-05-12 05:22:00,
2013-05-12 01:32:00,61.0,54.0,29.72,North,10,7.0,-999.0,77,-99.99,,,-99.99,,2013-05-12 05:32:00,
2013-05-12 01:42:00,61.0,52.0,29.72,NNE,20,7.0,-999.0,72,-99.99,,,-99.99,,2013-05-12 05:42:00,
2013-05-12 01:51:00,61.0,52.0,29.72,North,10,5.0,-999.0,72,-99.99,,,-99.99,,2013-05-12 05:51:00,
2013-05-12 02:02:00,61.0,52.0,29.71,North,10,5.0,-999.0,72,-99.99,,,-99.99,,2013-05-12 06:02:00,
2013-05-12 02:11:00,61.0,52.0,29.71,North,10,5.0,-999.0,72,-99.99,,,-99.99,,2013-05-12 06:11:00,
2013-05-12 02:21:00,61.0,52.0,29.72,North,360,3.0,-999.0,72,-99.99,,,-99.99,,2013-05-12 06:21:00,
2013-05-12 02:32:00,61.0,52.0,29.71,North,360,7.0,-999.0,72,-99.99,,,-99.99,,2013-05-12 06:32:00,
2013-05-12 02:42:00,61.0,52.0,29.71,North,360,5.0,-999.0,72,-99.99,,,-99.99,,2013-05-12 06:42:00,
2013-05-12 02:52:00,59.0,52.0,29.71,North,360,8.0,-999.0,76,-99.99,,,-99.99,,2013-05-12 06:52:00,
2013-05-12 03:01:00,59.0,52.0,29.71,North,10,8.0,-999.0,76,-99.99,,,-99.99,,2013-05-12 07:01:00,
2013-05-12 03:11:00,59.0,52.0,29.71,North,350,5.0,-999.0,76,-99.99,,,-99.99,,2013-05-12 07:11:00,
2013-05-12 03:21:00,57.0,52.0,29.70,NNE,20,6.0,-999.0,82,-99.99,,,-99.99,,2013-05-12 07:21:00,
2013-05-12 03:32:00,57.0,52.0,29.69,North,10,6.0,-999.0,82,-99.99,,,-99.99,,2013-05-12 07:32:00,
2013-05-12 03:42:00,57.0,52.0,29.69,North,10,5.0,-999.0,82,-99.99,,,-99.99,,2013-05-12 07:42:00,
2013-05-12 03:52:00,57.0,52.0,29.69,NNE,30,5.0,-999.0,82,-99.99,,,-99.99,,2013-05-12 07:52:00,
2013-05-12 04:02:00,57.0,52.0,29.69,NNE,20,5.0,-999.0,82,-99.99,,,-99.99,,2013-05-12 08:02:00,
2013-05-12 04:11:00,57.0,52.0,29.71,North,0,0.0,-999.0,82,-99.99,,,-99.99,,2013-05-12 08:11:00,
2013-05-12 04:21:00,57.0,52.0,29.71,NNE,30,3.0,-999.0,82,-99.99,,,-99.99,,2013-05-12 08:21:00,
2013-05-12 04:32:00,57.0,52.0,29.71,NNE,20,6.0,-999.0,82,-99.99,,,-99.99,,2013-05-12 08:32:00,
2013-05-12 04:42:00,57.0,52.0,29.70,NNE,20,5.0,-999.0,82,-99.99,,,-99.99,,2013-05-12 08:42:00,
2013-05-12 04:52:00,57.0,52.0,29.71,NNE,30,3.0,-999.0,82,-99.99,,,-99.99,,2013-05-12 08:52:00,
2013-05-12 05:01:00,57.0,52.0,29.71,NNE,20,6.0,-999.0,82,-99.99,,,-99.99,,2013-05-12 09:01:00,
2013-05-12 05:11:00,57.0,52.0,29.70,NNE,20,6.0,-999.0,82,-99.99,,,-99.99,,2013-05-12 09:11:00,
2013-05-12 05:21:00,57.0,52.0,29.70,North,0,0.0,-999.0,82,-99.99,,,-99.99,,2013-05-12 09:21:00,
2013-05-12 05:33:00,57.0,52.0,29.70,North,0,0.0,-999.0,82,-99.99,,,-99.99,,2013-05-12 09:33:00,
2013-05-12 05:43:00,57.0,52.0,29.70,North,10,3.0,-999.0,82,-99.99,,,-99.99,,2013-05-12 09:43:00,
2013-05-12 05:52:00,57.0,52.0,29.70,NNE,30,5.0,-999.0,82,-99.99,,,-99.99,,2013-05-12 09:52:00,
2013-05-12 06:03:00,57.0,52.0,29.70,North,0,0.0,-999.0,82,-99.99,,,-99.99,,2013-05-12 10:03:00,
2013-05-12 06:12:00,57.0,52.0,29.70,North,350,3.0,-999.0,82,-99.99,,,-99.99,,2013-05-12 10:12:00,
2013-05-12 06:22:00,57.0,52.0,29.71,North,10,3.0,-999.0,82,-99.99,,,-99.99,,2013-05-12 10:22:00,
2013-05-12 06:33:00,57.0,52.0,29.71,NNE,20,3.0,-999.0,82,-99.99,,,-99.99,,2013-05-12 10:33:00,
2013-05-12 06:42:00,57.0,52.0,29.72,North,0,0.0,-999.0,82,-99.99,,,-99.99,,2013-05-12 10:42:00,
2013-05-12 06:52:00,57.0,52.0,29.72,North,0,0.0,-999.0,82,-99.99,,,-99.99,,2013-05-12 10:52:00,
2013-05-12 07:02:00,57.0,52.0,29.72,North,0,0.0,-999.0,82,-99.99,,,-99.99,,2013-05-12 11:02:00,
2013-05-12 07:12:00,57.0,52.0,29.72,North,0,0.0,-999.0,82,-99.99,,,-99.99,,2013-05-12 11:12:00,
2013-05-12 07:22:00,57.0,52.0,29.71,North,0,0.0,-999.0,82,-99.99,,,-99.99,,2013-05-12 11:22:00,
2013-05-12 07:32:00,57.0,52.0,29.71,North,0,0.0,-999.0,82,-99.99,,,-99.99,,2013-05-12 11:32:00,
2013-05-12 07:42:00,57.0,52.0,29.71,North,0,0.0,-999.0,82,-99.99,,,-99.99,,2013-05-12 11:42:00,
2013-05-12 07:52:00,57.0,52.0,29.71,North,0,0.0,-999.0,82,-99.99,,,-99.99,,2013-05-12 11:52:00,
2013-05-12 08:02:00,57.0,52.0,29.71,NNE,30,3.0,-999.0,82,-99.99,,,-99.99,,2013-05-12 12:02:00,
2013-05-12 08:11:00,57.0,52.0,29.71,NE,50,3.0,-999.0,82,-99.99,,,-99.99,,2013-05-12 12:11:00,
2013-05-12 08:21:00,57.0,52.0,29.71,North,10,3.0,-999.0,82,-99.99,,,-99.99,,2013-05-12 12:21:00,
2013-05-12 08:32:00,57.0,52.0,29.70,NE,40,3.0,-999.0,82,-99.99,,,-99.99,,2013-05-12 12:32:00,
2013-05-12 08:42:00,57.0,52.0,29.70,North,0,0.0,-999.0,82,-99.99,,,-99.99,,2013-05-12 12:42:00,
2013-05-12 08:51:00,59.0,52.0,29.70,North,0,0.0,-999.0,76,-99.99,,,-99.99,,2013-05-12 12:51:00,
2013-05-12 09:02:00,59.0,52.0,29.70,North,0,0.0,-999.0,76,-99.99,,,-99.99,,2013-05-12 13:02:00,
2013-05-12 09:11:00,59.0,52.0,29.70,NE,50,3.0,-999.0,76,-99.99,,,-99.99,,2013-05-12 13:11:00,
2013-05-12 09:21:00,61.0,52.0,29.69,ENE,60,5.0,-999.0,72,-99.99,,,-99.99,,2013-05-12 13:21:00,
2013-05-12 09:32:00,61.0,50.0,29.69,North,360,3.0,-999.0,67,-99.99,,,-99.99,,2013-05-12 13:32:00,
2013-05-12 09:42:00,61.0,52.0,29.69,North,10,5.0,-999.0,72,-99.99,,,-99.99,,2013-05-12 13:42:00,
2013-05-12 09:52:00,63.0,52.0,29.68,NE,50,3.0,-999.0,67,-99.99,,,-99.99,,2013-05-12 13:52:00,
2013-05-12 10:01:00,63.0,52.0,29.68,North,0,0.0,-999.0,67,-99.99,,,-99.99,,2013-05-12 14:01:00,
2013-05-12 10:11:00,64.0,52.0,29.68,North,0,0.0,-999.0,63,-99.99,,,-99.99,,2013-05-12 14:11:00,
2013-05-12 10:21:00,64.0,52.0,29.68,West,280,8.0,-999.0,63,-99.99,,,-99.99,,2013-05-12 14:21:00,
2013-05-12 10:32:00,63.0,50.0,29.68,NW,310,5.0,-999.0,63,-99.99,,,-99.99,,2013-05-12 14:32:00,
2013-05-12 10:42:00,63.0,50.0,29.68,WNW,300,3.0,-999.0,63,-99.99,,,-99.99,,2013-05-12 14:42:00,
2013-05-12 10:52:00,63.0,50.0,29.68,North,0,0.0,-999.0,63,-99.99,,,-99.99,,2013-05-12 14:52:00,
2013-05-12 11:01:00,63.0,50.0,29.68,North,0,0.0,-999.0,63,-99.99,,,-99.99,,2013-05-12 15:01:00,
2013-05-12 11:11:00,63.0,50.0,29.68,North,0,0.0,-999.0,63,-99.99,,,-99.99,,2013-05-12 15:11:00,
2013-05-12 11:21:00,63.0,52.0,29.67,SSW,210,5.0,-999.0,67,-99.99,,,-99.99,,2013-05-12 15:21:00,
2013-05-12 11:34:00,64.0,52.0,29.67,South,190,5.0,-999.0,63,-99.99,,,-99.99,,2013-05-12 15:34:00,
2013-05-12 11:42:00,64.0,52.0,29.67,WSW,250,6.0,-999.0,63,-99.99,,,-99.99,,2013-05-12 15:42:00,
2013-05-12 11:52:00,64.0,52.0,29.69,North,360,17.0,-999.0,63,-99.99,,,-99.99,,2013-05-12 15:52:00,
2013-05-12 12:02:00,61.0,48.0,29.70,North,350,13.0,20.0,63,-99.99,,,-99.99,,2013-05-12 16:02:00,
2013-05-12 12:13:00,57.0,46.0,29.71,North,360,8.0,22.0,67,-99.99,,,-99.99,,2013-05-12 16:13:00,
2013-05-12 12:23:00,55.0,46.0,29.71,North,350,9.0,17.0,71,-99.99,,,-99.99,,2013-05-12 16:23:00,
2013-05-12 12:33:00,55.0,45.0,29.72,North,360,15.0,18.0,66,-99.99,,,-99.99,,2013-05-12 16:33:00,
2013-05-12 12:42:00,54.0,45.0,29.73,North,360,8.0,18.0,71,-99.99,,,-99.99,,2013-05-12 16:42:00,
2013-05-12 12:52:00,52.0,46.0,29.73,NNE,20,12.0,18.0,81,-99.99,,,-99.99,,2013-05-12 16:52:00,
2013-05-12 13:02:00,52.0,48.0,29.73,NNE,20,10.0,16.0,87,-99.99,,,-99.99,,2013-05-12 17:02:00,
2013-05-12 13:12:00,52.0,48.0,29.74,NE,40,9.0,16.0,87,-99.99,,,-99.99,,2013-05-12 17:12:00,
2013-05-12 13:22:00,52.0,48.0,29.74,NE,50,9.0,-999.0,87,-99.99,,,-99.99,,2013-05-12 17:22:00,
2013-05-12 13:32:00,52.0,48.0,29.74,ENE,60,9.0,-999.0,87,-99.99,,,-99.99,,2013-05-12 17:32:00,
2013-05-12 13:42:00,52.0,48.0,29.74,ENE,70,8.0,-999.0,87,-99.99,,,-99.99,,2013-05-12 17:42:00,
2013-05-12 13:52:00,52.0,48.0,29.74,ENE,60,8.0,-999.0,87,-99.99,,,-99.99,,2013-05-12 17:52:00,
2013-05-12 14:01:00,52.0,48.0,29.74,ENE,70,9.0,-999.0,87,-99.99,,,-99.99,,2013-05-12 18:01:00,
2013-05-12 14:12:00,54.0,50.0,29.73,NE,50,10.0,-999.0,87,-99.99,,,-99.99,,2013-05-12 18:12:00,
2013-05-12 14:22:00,55.0,50.0,29.73,NE,50,10.0,-999.0,81,-99.99,,,-99.99,,2013-05-12 18:22:00,
2013-05-12 14:32:00,55.0,50.0,29.72,ENE,60,10.0,-999.0,81,-99.99,,,-99.99,,2013-05-12 18:32:00,
2013-05-12 14:42:00,55.0,48.0,29.72,ENE,60,9.0,-999.0,76,-99.99,,,-99.99,,2013-05-12 18:42:00,
2013-05-12 14:51:00,57.0,48.0,29.72,NE,50,9.0,-999.0,71,-99.99,,,-99.99,,2013-05-12 18:51:00,
2013-05-12 15:01:00,57.0,48.0,29.72,ENE,70,8.0,-999.0,71,-99.99,,,-99.99,,2013-05-12 19:01:00,
2013-05-12 15:11:00,59.0,50.0,29.71,NE,50,7.0,-999.0,72,-99.99,,,-99.99,,2013-05-12 19:11:00,
2013-05-12 15:22:00,61.0,48.0,29.71,NE,50,7.0,-999.0,63,-99.99,,,-99.99,,2013-05-12 19:22:00,
2013-05-12 15:32:00,61.0,48.0,29.71,NE,40,6.0,-999.0,63,-99.99,,,-99.99,,2013-05-12 19:32:00,
2013-05-12 15:42:00,61.0,48.0,29.71,NE,50,8.0,-999.0,63,-99.99,,,-99.99,,2013-05-12 19:42:00,
2013-05-12 15:52:00,63.0,46.0,29.71,North,0,0.0,-999.0,55,-99.99,,,-99.99,,2013-05-12 19:52:00,
2013-05-12 16:02:00,63.0,48.0,29.71,North,0,0.0,-999.0,59,-99.99,,,-99.99,,2013-05-12 20:02:00,
2013-05-12 16:11:00,64.0,45.0,29.70,North,10,9.0,-999.0,48,-99.99,,,-99.99,,2013-05-12 20:11:00,
2013-05-12 16:21:00,64.0,37.0,29.70,NW,320,10.0,17.0,36,-99.99,,,-99.99,,2013-05-12 20:21:00,
2013-05-12 16:32:00,64.0,34.0,29.70,NW,320,8.0,20.0,31,-99.99,,,-99.99,,2013-05-12 20:32:00,
2013-05-12 16:42:00,66.0,36.0,29.71,NW,320,7.0,20.0,32,-99.99,,,-99.99,,2013-05-12 20:42:00,
2013-05-12 16:51:00,66.0,34.0,29.72,NNW,340,14.0,22.0,29,-99.99,,,-99.99,,2013-05-12 20:51:00,
2013-05-12 17:01:00,66.0,34.0,29.72,NNW,340,12.0,23.0,29,-99.99,,,-99.99,,2013-05-12 21:01:00,
2013-05-12 17:11:00,64.0,34.0,29.72,North,350,14.0,22.0,31,-99.99,,,-99.99,,2013-05-12 21:11:00,
2013-05-12 17:21:00,64.0,34.0,29.72,NW,310,13.0,24.0,31,-99.99,,,-99.99,,2013-05-12 21:21:00,
2013-05-12 17:33:00,64.0,34.0,29.72,NW,310,13.0,21.0,31,-99.99,,,-99.99,,2013-05-12 21:33:00,
2013-05-12 17:42:00,64.0,34.0,29.72,NW,310,10.0,-999.0,31,-99.99,,,-99.99,,2013-05-12 21:42:00,
2013-05-12 17:53:00,63.0,32.0,29.72,WNW,300,8.0,18.0,31,-99.99,,,-99.99,,2013-05-12 21:53:00,
2013-05-12 18:02:00,63.0,32.0,29.73,NW,320,14.0,22.0,31,-99.99,,,-99.99,,2013-05-12 22:02:00,
2013-05-12 18:12:00,64.0,32.0,29.72,NW,320,8.0,-999.0,29,-99.99,,,-99.99,,2013-05-12 22:12:00,
2013-05-12 18:23:00,64.0,32.0,29.73,NW,310,13.0,20.0,29,-99.99,,,-99.99,,2013-05-12 22:23:00,
2013-05-12 18:33:00,63.0,30.0,29.74,WNW,300,12.0,20.0,29,-99.99,,,-99.99,,2013-05-12 22:33:00,
2013-05-12 18:42:00,63.0,30.0,29.74,NW,310,6.0,20.0,29,-99.99,,,-99.99,,2013-05-12 22:42:00,
2013-05-12 18:52:00,61.0,32.0,29.75,NW,310,5.0,-999.0,33,-99.99,,,-99.99,,2013-05-12 22:52:00,
2013-05-12 19:02:00,61.0,30.0,29.75,West,280,7.0,-999.0,31,-99.99,,,-99.99,,2013-05-12 23:02:00,
2013-05-12 19:12:00,61.0,30.0,29.76,NW,310,7.0,-999.0,31,-99.99,,,-99.99,,2013-05-12 23:12:00,
2013-05-12 19:22:00,61.0,30.0,29.77,NW,310,10.0,16.0,31,-99.99,,,-99.99,,2013-05-12 23:22:00,
2013-05-12 19:32:00,61.0,32.0,29.77,NW,320,7.0,-999.0,33,-99.99,,,-99.99,,2013-05-12 23:32:00,
2013-05-12 19:42:00,61.0,32.0,29.78,NW,320,9.0,-999.0,33,-99.99,,,-99.99,,2013-05-12 23:42:00,
2013-05-12 19:52:00,59.0,32.0,29.79,NW,310,10.0,22.0,35,-99.99,,,-99.99,,2013-05-12 23:52:00,
2013-05-12 20:01:00,59.0,32.0,29.80,NW,320,9.0,21.0,35,-99.99,,,-99.99,,2013-05-13 00:01:00,
2013-05-12 20:11:00,57.0,32.0,29.80,NW,320,9.0,-999.0,38,-99.99,,,-99.99,,2013-05-13 00:11:00,
2013-05-12 20:21:00,57.0,30.0,29.81,NW,310,9.0,18.0,35,-99.99,,,-99.99,,2013-05-13 00:21:00,
2013-05-12 20:32:00,55.0,32.0,29.82,NW,310,9.0,16.0,40,-99.99,,,-99.99,,2013-05-13 00:32:00,
2013-05-12 20:42:00,55.0,32.0,29.82,NW,320,5.0,-999.0,40,-99.99,,,-99.99,,2013-05-13 00:42:00,
2013-05-12 20:51:00,54.0,32.0,29.82,NNW,340,3.0,-999.0,43,-99.99,,,-99.99,,2013-05-13 00:51:00,
2013-05-12 21:01:00,54.0,32.0,29.83,NNW,330,5.0,-999.0,43,-99.99,,,-99.99,,2013-05-13 01:01:00,
2013-05-12 21:11:00,54.0,34.0,29.83,North,0,0.0,-999.0,46,-99.99,,,-99.99,,2013-05-13 01:11:00,
2013-05-12 21:22:00,52.0,36.0,29.84,North,0,0.0,-999.0,53,-99.99,,,-99.99,,2013-05-13 01:22:00,
2013-05-12 21:32:00,52.0,34.0,29.84,North,0,0.0,-999.0,50,-99.99,,,-99.99,,2013-05-13 01:32:00,
2013-05-12 21:42:00,52.0,34.0,29.85,NW,310,3.0,-999.0,50,-99.99,,,-99.99,,2013-05-13 01:42:00,
2013-05-12 21:52:00,52.0,34.0,29.85,NNW,330,5.0,-999.0,50,-99.99,,,-99.99,,2013-05-13 01:52:00,
2013-05-12 22:02:00,52.0,34.0,29.86,NW,320,5.0,-999.0,50,-99.99,,,-99.99,,2013-05-13 02:02:00,
2013-05-12 22:11:00,52.0,34.0,29.87,North,0,0.0,-999.0,50,-99.99,,,-99.99,,2013-05-13 02:11:00,
2013-05-12 22:21:00,52.0,34.0,29.87,North,0,0.0,-999.0,50,-99.99,,,-99.99,,2013-05-13 02:21:00,
2013-05-12 22:32:00,50.0,34.0,29.87,North,0,0.0,-999.0,53,-99.99,,,-99.99,,2013-05-13 02:32:00,
2013-05-12 22:42:00,50.0,34.0,29.87,WNW,290,3.0,-999.0,53,-99.99,,,-99.99,,2013-05-13 02:42:00,
2013-05-12 22:51:00,52.0,34.0,29.88,West,280,3.0,-999.0,50,-99.99,,,-99.99,,2013-05-13 02:51:00,
2013-05-12 23:02:00,52.0,34.0,29.88,North,0,0.0,-999.0,50,-99.99,,,-99.99,,2013-05-13 03:02:00,
2013-05-12 23:11:00,52.0,34.0,29.88,North,0,0.0,-999.0,50,-99.99,,,-99.99,,2013-05-13 03:11:00,
2013-05-12 23:21:00,50.0,36.0,29.88,North,0,0.0,-999.0,57,-99.99,,,-99.99,,2013-05-13 03:21:00,
2013-05-12 23:33:00,52.0,34.0,29.88,NW,310,6.0,-999.0,50,-99.99,,,-99.99,,2013-05-13 03:33:00,
2013-05-12 23:42:00,52.0,32.0,29.88,West,280,5.0,-999.0,46,-99.99,,,-99.99,,2013-05-13 03:42:00,
2013-05-12 23:52:00,52.0,32.0,29.88,West,280,5.0,-999.0,46,-99.99,,,-99.99,,2013-05-13 03:52:00,